createdAt,value
2022-10-18T00:00:18.374Z,75.60
2022-10-18T00:02:45.039Z,75.35
2022-10-18T00:05:11.737Z,75.35
2022-10-18T00:07:38.381Z,75.34
2022-10-18T00:10:05.744Z,75.32
2022-10-18T00:12:34.761Z,75.61
2022-10-18T00:15:01.928Z,75.23
2022-10-18T00:17:28.793Z,75.65
2022-10-18T00:19:55.971Z,75.63
2022-10-18T00:22:22.766Z,75.36
2022-10-18T00:24:49.431Z,75.40
2022-10-18T00:27:16.071Z,75.59
2022-10-18T00:29:42.731Z,75.63
2022-10-18T00:32:09.500Z,75.34
2022-10-18T00:34:36.160Z,75.56
2022-10-18T00:37:02.789Z,75.23
2022-10-18T00:39:29.469Z,75.08
2022-10-18T00:41:56.183Z,75.64
2022-10-18T00:44:25.858Z,75.50
2022-10-18T00:46:55.235Z,75.81
2022-10-18T00:49:32.312Z,75.64
2022-10-18T00:52:16.172Z,75.38
2022-10-18T00:54:44.913Z,75.63
2022-10-18T00:57:12.099Z,75.35
2022-10-18T00:59:38.993Z,75.74
2022-10-18T01:02:07.298Z,75.51
2022-10-18T01:04:34.597Z,75.77
2022-10-18T01:07:19.329Z,75.85
2022-10-18T01:10:09.771Z,75.63
2022-10-18T01:12:50.811Z,75.52
2022-10-18T01:15:27.635Z,75.84
2022-10-18T01:18:25.791Z,76.25
2022-10-18T01:21:04.652Z,76.18
2022-10-18T01:23:53.201Z,76.34
2022-10-18T01:26:52.337Z,76.02
2022-10-18T01:30:06.920Z,76.33
2022-10-18T01:32:54.449Z,76.45
2022-10-18T01:35:30.875Z,76.59
2022-10-18T01:37:59.973Z,76.69
2022-10-18T01:40:26.975Z,76.65
2022-10-18T01:42:53.757Z,76.89
2022-10-18T01:45:21.900Z,76.97
2022-10-18T01:47:48.716Z,76.83
2022-10-18T01:50:15.793Z,76.93
2022-10-18T01:52:50.074Z,76.67
2022-10-18T01:55:16.911Z,76.65
2022-10-18T01:57:57.577Z,76.68
2022-10-18T02:00:45.704Z,76.79
2022-10-18T02:03:17.976Z,76.75
2022-10-18T02:05:47.574Z,76.83
2022-10-18T02:08:31.981Z,77.00
2022-10-18T02:11:07.361Z,77.07
2022-10-18T02:13:39.289Z,77.29
2022-10-18T02:16:11.230Z,77.03
2022-10-18T02:18:41.759Z,77.47
2022-10-18T02:21:11.653Z,77.08
2022-10-18T02:23:38.735Z,77.16
2022-10-18T02:26:06.172Z,77.18
2022-10-18T02:28:32.921Z,77.43
2022-10-18T02:31:06.090Z,77.44
2022-10-18T02:33:34.506Z,77.59
2022-10-18T02:36:06.736Z,77.69
2022-10-18T02:38:33.677Z,77.77
2022-10-18T02:41:00.348Z,77.94
2022-10-18T02:43:27.077Z,78.02
2022-10-18T02:45:53.822Z,77.86
2022-10-18T02:48:20.571Z,77.88
2022-10-18T02:50:47.239Z,77.89
2022-10-18T02:53:13.958Z,78.00
2022-10-18T02:55:40.590Z,77.82
2022-10-18T02:58:07.359Z,78.42
2022-10-18T03:00:33.976Z,78.01
2022-10-18T03:03:00.661Z,78.15
2022-10-18T03:05:27.313Z,78.21
2022-10-18T03:07:56.973Z,78.05
2022-10-18T03:10:23.642Z,77.96
2022-10-18T03:12:50.295Z,78.42
2022-10-18T03:15:16.966Z,78.14
2022-10-18T03:17:43.657Z,78.56
2022-10-18T03:20:10.898Z,78.63
2022-10-18T03:22:40.692Z,78.87
2022-10-18T03:25:07.609Z,78.39
2022-10-18T03:27:34.527Z,78.57
2022-10-18T03:30:01.318Z,78.25
2022-10-18T03:32:27.970Z,78.61
2022-10-18T03:34:55.158Z,78.71
2022-10-18T03:37:21.848Z,78.40
2022-10-18T03:39:48.544Z,78.90
2022-10-18T03:42:15.232Z,78.98
2022-10-18T03:44:41.890Z,79.04
2022-10-18T03:47:08.807Z,78.86
2022-10-18T03:49:35.439Z,78.89
2022-10-18T03:52:02.156Z,79.35
2022-10-18T03:54:28.861Z,79.43
2022-10-18T03:56:55.493Z,79.05
2022-10-18T03:59:23.136Z,79.23
2022-10-18T04:01:49.880Z,79.60
2022-10-18T04:04:16.764Z,79.15
2022-10-18T04:06:43.393Z,79.26
2022-10-18T04:09:10.505Z,79.14
2022-10-18T04:11:37.153Z,79.48
2022-10-18T04:14:04.003Z,79.54
2022-10-18T04:16:30.814Z,79.51
2022-10-18T04:18:57.528Z,79.62
2022-10-18T04:21:24.224Z,79.67
2022-10-18T04:23:51.174Z,79.78
2022-10-18T04:26:18.111Z,79.53
2022-10-18T04:28:44.889Z,79.39
2022-10-18T04:31:11.997Z,79.47
2022-10-18T04:33:38.909Z,79.55
2022-10-18T04:36:05.895Z,79.27
2022-10-18T04:38:32.683Z,79.30
2022-10-18T04:40:59.366Z,79.81
2022-10-18T04:43:26.173Z,80.08
2022-10-18T04:45:52.785Z,79.85
2022-10-18T04:48:19.991Z,79.48
2022-10-18T04:50:50.634Z,79.71
2022-10-18T04:53:18.094Z,79.67
2022-10-18T04:55:53.822Z,79.92
2022-10-18T04:58:20.519Z,80.15
2022-10-18T05:00:50.245Z,79.71
2022-10-18T05:03:17.170Z,79.91
2022-10-18T05:06:03.065Z,79.93
2022-10-18T05:08:30.522Z,79.89
2022-10-18T05:10:57.311Z,79.91
2022-10-18T05:13:24.034Z,79.72
2022-10-18T05:15:50.743Z,79.57
2022-10-18T05:18:17.527Z,79.54
2022-10-18T05:20:44.258Z,79.64
2022-10-18T05:23:11.028Z,79.75
2022-10-18T05:25:44.146Z,79.58
2022-10-18T05:28:34.117Z,79.69
2022-10-18T05:31:16.141Z,79.54
2022-10-18T05:33:42.879Z,79.66
2022-10-18T05:36:10.494Z,79.70
2022-10-18T05:38:44.113Z,79.61
2022-10-18T05:41:15.504Z,79.56
2022-10-18T05:43:42.430Z,79.44
2022-10-18T05:46:14.563Z,79.55
2022-10-18T05:48:43.515Z,79.49
2022-10-18T05:51:10.215Z,79.44
2022-10-18T05:53:38.083Z,79.51
2022-10-18T05:56:06.153Z,79.72
2022-10-18T05:58:33.421Z,79.40
2022-10-18T06:01:01.488Z,79.93
2022-10-18T06:03:30.426Z,79.58
2022-10-18T06:06:04.442Z,80.00
2022-10-18T06:08:31.397Z,79.70
2022-10-18T06:10:58.282Z,79.83
2022-10-18T06:13:25.074Z,79.81
2022-10-18T06:15:56.055Z,79.53
2022-10-18T06:18:22.921Z,79.93
2022-10-18T06:20:49.769Z,79.89
2022-10-18T06:23:16.593Z,80.21
2022-10-18T06:25:43.463Z,80.21
2022-10-18T06:28:11.515Z,80.36
2022-10-18T06:30:38.923Z,80.61
2022-10-18T06:33:05.731Z,82.49
2022-10-18T06:35:32.622Z,82.14
2022-10-18T06:37:59.279Z,82.05
2022-10-18T06:40:25.999Z,81.28
2022-10-18T06:43:00.607Z,81.51
2022-10-18T06:45:37.427Z,81.51
2022-10-18T06:48:04.186Z,81.25
2022-10-18T06:50:31.012Z,81.06
2022-10-18T06:52:58.196Z,80.83
2022-10-18T06:55:25.074Z,81.23
2022-10-18T06:57:53.308Z,80.71
2022-10-18T07:00:19.996Z,80.62
2022-10-18T07:02:46.722Z,80.73
2022-10-18T07:05:13.506Z,80.92
2022-10-18T07:07:40.214Z,80.81
2022-10-18T07:10:08.042Z,80.76
2022-10-18T07:12:36.058Z,81.00
2022-10-18T07:15:06.816Z,80.85
2022-10-18T07:17:35.748Z,81.21
2022-10-18T07:20:04.390Z,81.27
2022-10-18T07:22:31.024Z,81.18
2022-10-18T07:24:57.875Z,81.22
2022-10-18T07:27:24.560Z,81.53
2022-10-18T07:29:51.341Z,81.31
2022-10-18T07:32:18.008Z,81.13
2022-10-18T07:34:44.676Z,81.17
2022-10-18T07:37:11.556Z,81.24
2022-10-18T07:39:38.201Z,81.36
2022-10-18T07:42:04.880Z,81.18
2022-10-18T07:44:31.546Z,81.34
2022-10-18T07:46:58.238Z,81.41
2022-10-18T07:49:24.871Z,81.30
2022-10-18T07:51:51.527Z,81.26
2022-10-18T07:54:18.462Z,81.59
2022-10-18T07:56:45.115Z,81.70
2022-10-18T07:59:12.323Z,81.63
2022-10-18T08:01:39.175Z,81.53
2022-10-18T08:04:07.919Z,81.35
2022-10-18T08:06:35.769Z,81.15
2022-10-18T08:09:03.022Z,81.34
2022-10-18T08:11:29.712Z,81.23
2022-10-18T08:13:56.418Z,81.42
2022-10-18T08:16:25.703Z,81.14
2022-10-18T08:18:52.753Z,81.33
2022-10-18T08:21:21.257Z,81.51
2022-10-18T08:23:48.202Z,81.61
2022-10-18T08:26:20.080Z,81.38
2022-10-18T08:28:54.088Z,81.81
2022-10-18T08:31:25.677Z,81.51
2022-10-18T08:33:52.411Z,81.23
2022-10-18T08:36:19.531Z,81.24
2022-10-18T08:38:46.351Z,81.47
2022-10-18T08:41:31.814Z,81.31
2022-10-18T08:44:07.901Z,81.96
2022-10-18T08:46:36.228Z,82.10
2022-10-18T08:49:04.012Z,81.51
2022-10-18T08:51:44.048Z,81.94
2022-10-18T08:54:16.296Z,81.80
2022-10-18T08:56:47.260Z,81.83
2022-10-18T08:59:14.278Z,82.09
2022-10-18T09:02:03.293Z,82.48
2022-10-18T09:05:07.614Z,82.10
2022-10-18T09:07:52.637Z,82.50
2022-10-18T09:10:55.745Z,82.52
2022-10-18T09:13:48.226Z,82.30
2022-10-18T09:16:22.275Z,82.20
2022-10-18T09:18:48.989Z,82.25
2022-10-18T09:21:42.280Z,82.26
2022-10-18T09:24:14.749Z,81.87
2022-10-18T09:26:49.167Z,81.86
2022-10-18T09:29:31.836Z,81.97
2022-10-18T09:32:03.884Z,81.83
2022-10-18T09:34:39.022Z,82.11
2022-10-18T09:37:11.575Z,82.16
2022-10-18T09:39:38.425Z,81.68
2022-10-18T09:42:28.324Z,82.07
2022-10-18T09:45:04.215Z,82.26
2022-10-18T09:47:37.862Z,82.23
2022-10-18T09:50:17.726Z,82.02
2022-10-18T09:53:00.243Z,81.89
2022-10-18T09:55:32.032Z,81.94
2022-10-18T09:58:01.011Z,82.23
2022-10-18T10:00:49.979Z,82.37
2022-10-18T10:03:16.780Z,82.36
2022-10-18T10:05:44.096Z,82.62
2022-10-18T10:08:11.210Z,82.15
2022-10-18T10:10:46.831Z,82.42
2022-10-18T10:13:28.072Z,82.31
2022-10-18T10:16:01.891Z,82.08
2022-10-18T10:18:34.002Z,82.08
2022-10-18T10:21:06.240Z,82.31
2022-10-18T10:23:38.317Z,82.05
2022-10-18T10:26:18.924Z,82.09
2022-10-18T10:28:49.007Z,82.09
2022-10-18T10:31:19.279Z,81.92
2022-10-18T10:33:47.744Z,81.97
2022-10-18T10:36:20.826Z,81.81
2022-10-18T10:39:21.278Z,82.13
2022-10-18T10:41:59.350Z,81.75
2022-10-18T10:44:30.663Z,81.87
2022-10-18T10:46:58.192Z,81.85
2022-10-18T10:49:40.784Z,82.21
2022-10-18T10:52:26.940Z,82.33
2022-10-18T10:55:05.834Z,82.77
2022-10-18T10:57:38.709Z,82.54
2022-10-18T11:00:05.755Z,82.40
2022-10-18T11:02:34.693Z,82.35
2022-10-18T11:05:24.356Z,82.56
2022-10-18T11:07:53.121Z,82.79
2022-10-18T11:10:23.243Z,82.35
2022-10-18T11:13:02.644Z,82.52
2022-10-18T11:16:00.527Z,82.24
2022-10-18T11:18:34.857Z,82.36
2022-10-18T11:21:11.715Z,82.51
2022-10-18T11:23:40.157Z,82.67
2022-10-18T11:26:12.981Z,83.75
2022-10-18T11:29:44.622Z,83.55
2022-10-18T11:32:14.276Z,83.59
2022-10-18T11:34:50.165Z,83.76
2022-10-18T11:37:39.661Z,83.75
2022-10-18T11:40:24.561Z,84.08
2022-10-18T11:43:38.911Z,83.80
2022-10-18T11:46:54.484Z,83.44
2022-10-18T11:49:49.092Z,83.68
2022-10-18T11:52:34.542Z,83.42
2022-10-18T11:55:12.889Z,83.55
2022-10-18T11:58:20.902Z,83.45
2022-10-18T12:00:54.484Z,83.41
2022-10-18T12:03:33.885Z,83.93
2022-10-18T12:06:05.764Z,84.40
2022-10-18T12:08:53.270Z,84.26
2022-10-18T12:11:23.832Z,84.11
2022-10-18T12:13:53.930Z,84.49
2022-10-18T12:16:39.009Z,84.26
2022-10-18T12:19:23.298Z,83.66
2022-10-18T12:21:55.223Z,84.02
2022-10-18T12:24:25.750Z,83.65
2022-10-18T12:26:58.057Z,83.89
2022-10-18T12:29:26.103Z,83.87
2022-10-18T12:32:03.167Z,83.67
2022-10-18T12:34:36.808Z,83.74
2022-10-18T12:37:27.897Z,83.79
2022-10-18T12:40:18.823Z,83.80
2022-10-18T12:42:49.779Z,83.42
2022-10-18T12:45:30.338Z,83.39
2022-10-18T12:48:05.646Z,83.93
2022-10-18T12:50:38.084Z,83.85
2022-10-18T12:53:26.776Z,83.40
2022-10-18T12:55:54.445Z,84.01
2022-10-18T12:58:23.146Z,83.68
2022-10-18T13:00:49.766Z,83.43
2022-10-18T13:03:17.425Z,83.29
2022-10-18T13:05:55.248Z,82.90
2022-10-18T13:08:34.614Z,83.17
2022-10-18T13:11:10.569Z,83.34
2022-10-18T13:13:40.053Z,83.37
2022-10-18T13:16:20.617Z,83.40
2022-10-18T13:18:53.637Z,83.35
2022-10-18T13:21:40.044Z,83.40
2022-10-18T13:24:36.086Z,83.73
2022-10-18T13:27:42.185Z,83.51
2022-10-18T13:30:18.590Z,83.87
2022-10-18T13:32:57.534Z,84.03
2022-10-18T13:35:46.135Z,83.72
2022-10-18T13:38:34.167Z,83.49
2022-10-18T13:41:03.115Z,83.61
2022-10-18T13:43:57.830Z,83.73
2022-10-18T13:46:33.808Z,84.07
2022-10-18T13:49:21.866Z,84.62
2022-10-18T13:52:29.719Z,84.64
2022-10-18T13:55:27.127Z,83.94
2022-10-18T13:58:09.259Z,83.75
2022-10-18T14:01:04.108Z,83.28
2022-10-18T14:03:59.592Z,83.04
2022-10-18T14:06:34.784Z,83.10
2022-10-18T14:09:26.141Z,83.40
2022-10-18T14:12:26.954Z,83.13
2022-10-18T14:15:05.888Z,83.08
2022-10-18T14:17:47.003Z,83.05
2022-10-18T14:20:16.980Z,82.63
2022-10-18T14:22:48.854Z,82.39
2022-10-18T14:25:28.182Z,82.49
2022-10-18T14:28:12.598Z,82.24
2022-10-18T14:31:00.143Z,82.13
2022-10-18T14:33:38.483Z,81.80
2022-10-18T14:36:20.489Z,81.45
2022-10-18T14:38:50.930Z,81.38
2022-10-18T14:41:22.330Z,81.01
2022-10-18T14:43:49.909Z,81.42
2022-10-18T14:46:27.285Z,81.13
2022-10-18T14:49:04.489Z,80.55
2022-10-18T14:51:34.557Z,80.54
2022-10-18T14:54:01.486Z,80.32
2022-10-18T14:56:33.739Z,80.60
2022-10-18T14:59:03.178Z,80.79
2022-10-18T15:01:31.640Z,80.78
2022-10-18T15:04:08.599Z,81.45
2022-10-18T15:06:35.376Z,81.02
2022-10-18T15:09:04.645Z,81.01
2022-10-18T15:11:32.404Z,81.37
2022-10-18T15:14:06.980Z,81.18
2022-10-18T15:16:34.210Z,81.37
2022-10-18T15:19:03.909Z,81.35
2022-10-18T15:21:31.280Z,81.12
2022-10-18T15:24:34.583Z,80.85
2022-10-18T15:27:23.140Z,80.56
2022-10-18T15:29:50.213Z,80.33
2022-10-18T15:32:31.124Z,80.22
2022-10-18T15:35:34.848Z,80.05
2022-10-18T15:38:16.170Z,80.20
2022-10-18T15:40:43.324Z,80.34
2022-10-18T15:43:28.539Z,80.15
2022-10-18T15:46:01.567Z,79.88
2022-10-18T15:48:42.513Z,79.80
2022-10-18T15:51:24.007Z,79.72
2022-10-18T15:53:54.681Z,79.26
2022-10-18T15:56:37.610Z,79.62
2022-10-18T15:59:06.821Z,79.02
2022-10-18T16:01:36.424Z,78.86
2022-10-18T16:04:18.284Z,78.40
2022-10-18T16:06:45.062Z,78.18
2022-10-18T16:09:17.410Z,77.90
2022-10-18T16:11:44.582Z,77.82
2022-10-18T16:14:11.333Z,77.69
2022-10-18T16:16:39.445Z,77.70
2022-10-18T16:19:07.074Z,77.79
2022-10-18T16:21:38.506Z,77.83
2022-10-18T16:24:06.032Z,77.28
2022-10-18T16:26:33.174Z,77.48
2022-10-18T16:29:00.252Z,77.01
2022-10-18T16:31:29.138Z,77.17
2022-10-18T16:33:57.122Z,77.24
2022-10-18T16:36:27.045Z,77.28
2022-10-18T16:38:55.218Z,77.00
2022-10-18T16:41:22.264Z,77.06
2022-10-18T16:43:50.293Z,77.48
2022-10-18T16:46:22.759Z,76.99
2022-10-18T16:48:50.675Z,76.78
2022-10-18T16:51:17.799Z,77.28
2022-10-18T16:53:44.723Z,77.17
2022-10-18T16:56:20.043Z,77.10
2022-10-18T16:58:47.948Z,77.03
2022-10-18T17:01:16.859Z,77.14
2022-10-18T17:03:44.290Z,77.01
2022-10-18T17:06:31.262Z,76.91
2022-10-18T17:08:58.665Z,76.50
2022-10-18T17:11:27.193Z,76.96
2022-10-18T17:13:54.515Z,76.83
2022-10-18T17:16:33.020Z,76.79
2022-10-18T17:19:02.033Z,76.60
2022-10-18T17:21:31.745Z,76.74
2022-10-18T17:24:02.348Z,76.76
2022-10-18T17:26:30.266Z,76.47
2022-10-18T17:29:05.590Z,75.98
2022-10-18T17:31:33.069Z,76.24
2022-10-18T17:34:01.957Z,76.44
2022-10-18T17:36:30.811Z,75.98
2022-10-18T17:38:58.086Z,75.99
2022-10-18T17:41:26.685Z,76.46
2022-10-18T17:43:53.613Z,76.34
2022-10-18T17:46:21.571Z,75.85
2022-10-18T17:48:48.465Z,75.83
2022-10-18T17:51:17.255Z,76.04
2022-10-18T17:53:45.064Z,75.70
2022-10-18T17:56:12.826Z,75.73
2022-10-18T17:58:40.169Z,75.99
2022-10-18T18:01:12.054Z,75.74
2022-10-18T18:03:39.206Z,75.81
2022-10-18T18:06:16.153Z,75.76
2022-10-18T18:08:43.169Z,76.03
2022-10-18T18:11:10.096Z,76.11
2022-10-18T18:13:37.062Z,76.49
2022-10-18T18:16:14.161Z,76.58
2022-10-18T18:18:41.044Z,76.33
2022-10-18T18:21:07.698Z,76.67
2022-10-18T18:23:34.708Z,76.29
2022-10-18T18:26:01.622Z,76.18
2022-10-18T18:28:28.751Z,76.18
2022-10-18T18:30:55.921Z,76.22
2022-10-18T18:33:26.252Z,75.95
2022-10-18T18:35:57.347Z,75.86
2022-10-18T18:38:26.199Z,76.00
2022-10-18T18:41:23.154Z,75.58
2022-10-18T18:43:59.312Z,75.18
2022-10-18T18:46:29.034Z,75.35
2022-10-18T18:48:57.460Z,75.58
2022-10-18T18:51:26.940Z,75.08
2022-10-18T18:53:53.746Z,75.48
2022-10-18T18:56:25.275Z,75.22
2022-10-18T18:58:53.468Z,75.59
2022-10-18T19:01:25.330Z,75.68
2022-10-18T19:03:53.617Z,75.83
2022-10-18T19:06:28.980Z,75.82
2022-10-18T19:09:04.617Z,75.93
2022-10-18T19:11:34.635Z,76.22
2022-10-18T19:14:04.239Z,76.27
2022-10-18T19:16:35.190Z,75.98
2022-10-18T19:19:05.321Z,76.01
2022-10-18T19:21:36.886Z,76.26
2022-10-18T19:24:04.671Z,75.92
2022-10-18T19:26:34.512Z,75.75
2022-10-18T19:29:10.027Z,75.92
2022-10-18T19:31:37.663Z,75.73
2022-10-18T19:34:06.729Z,75.39
2022-10-18T19:36:35.272Z,75.39
2022-10-18T19:39:02.815Z,75.45
2022-10-18T19:41:29.826Z,75.33
2022-10-18T19:43:57.300Z,75.49
2022-10-18T19:46:25.092Z,75.30
2022-10-18T19:48:54.284Z,75.55
2022-10-18T19:51:31.478Z,75.85
2022-10-18T19:53:59.311Z,76.27
2022-10-18T19:56:27.483Z,75.88
2022-10-18T19:58:54.837Z,76.10
2022-10-18T20:01:22.501Z,76.04
2022-10-18T20:03:49.710Z,76.11
2022-10-18T20:06:18.216Z,75.94
2022-10-18T20:08:45.039Z,76.12
2022-10-18T20:11:14.870Z,75.99
2022-10-18T20:13:46.906Z,75.86
2022-10-18T20:16:19.255Z,75.79
2022-10-18T20:18:46.937Z,75.71
2022-10-18T20:21:16.325Z,75.74
2022-10-18T20:23:44.174Z,75.59
2022-10-18T20:26:19.809Z,75.41
2022-10-18T20:28:59.603Z,75.47
2022-10-18T20:31:31.632Z,75.10
2022-10-18T20:34:01.027Z,74.82
2022-10-18T20:36:29.331Z,75.10
2022-10-18T20:38:56.243Z,74.93
2022-10-18T20:41:25.822Z,74.96
2022-10-18T20:43:58.149Z,74.94
2022-10-18T20:46:25.835Z,75.02
2022-10-18T20:48:53.649Z,74.88
2022-10-18T20:51:21.024Z,74.80
2022-10-18T20:53:47.696Z,74.74
2022-10-18T20:56:16.899Z,75.11
2022-10-18T20:58:44.916Z,74.91
2022-10-18T21:01:23.369Z,74.83
2022-10-18T21:03:51.621Z,74.87
2022-10-18T21:06:19.787Z,74.73
2022-10-18T21:08:47.375Z,74.78
2022-10-18T21:11:15.199Z,74.59
2022-10-18T21:13:41.872Z,74.75
2022-10-18T21:16:08.704Z,74.76
2022-10-18T21:18:37.090Z,75.00
2022-10-18T21:23:40.801Z,74.90
2022-10-18T21:26:07.894Z,74.56
2022-10-18T21:28:34.854Z,74.74
2022-10-18T21:31:17.402Z,74.66
2022-10-18T21:33:44.695Z,74.60
2022-10-18T21:36:12.241Z,74.96
2022-10-18T21:38:44.349Z,75.24
2022-10-18T21:41:12.454Z,75.57
2022-10-18T21:43:41.140Z,75.43
2022-10-18T21:46:07.980Z,75.72
2022-10-18T21:48:34.620Z,75.68
2022-10-18T21:51:05.675Z,75.85
2022-10-18T21:53:32.533Z,75.76
2022-10-18T21:56:13.594Z,76.00
2022-10-18T21:58:41.127Z,76.06
2022-10-18T22:01:16.578Z,76.17
2022-10-18T22:03:44.529Z,76.04
2022-10-18T22:06:16.665Z,75.92
2022-10-18T22:08:45.343Z,76.26
2022-10-18T22:11:12.914Z,76.17
2022-10-18T22:13:40.088Z,75.90
2022-10-18T22:16:08.031Z,76.00
2022-10-18T22:18:35.033Z,76.00
2022-10-18T22:21:07.158Z,76.02
2022-10-18T22:23:36.175Z,76.21
2022-10-18T22:26:05.161Z,76.10
2022-10-18T22:28:31.908Z,76.10
2022-10-18T22:30:59.206Z,76.43
2022-10-18T22:33:27.254Z,76.49
2022-10-18T22:35:53.928Z,77.03
2022-10-18T22:38:20.788Z,77.35
2022-10-18T22:40:47.575Z,77.56
2022-10-18T22:43:14.330Z,77.92
2022-10-18T22:45:41.818Z,78.31
2022-10-18T22:48:08.577Z,78.55
2022-10-18T22:50:35.212Z,78.84
2022-10-18T22:53:01.900Z,78.86
2022-10-18T22:55:28.521Z,79.01
2022-10-18T22:57:56.105Z,78.99
2022-10-18T23:00:22.804Z,79.20
2022-10-18T23:02:50.085Z,79.23
2022-10-18T23:05:16.803Z,79.51
2022-10-18T23:07:47.756Z,79.49
2022-10-18T23:10:14.770Z,79.37
2022-10-18T23:12:41.531Z,79.80
2022-10-18T23:15:08.512Z,79.32
2022-10-18T23:17:35.535Z,79.70
2022-10-18T23:20:02.562Z,79.64
2022-10-18T23:22:29.234Z,79.58
2022-10-18T23:24:56.041Z,79.58
2022-10-18T23:27:22.717Z,79.40
2022-10-18T23:29:49.352Z,79.30
2022-10-18T23:32:16.545Z,79.51
2022-10-18T23:34:43.269Z,79.25
2022-10-18T23:37:09.938Z,79.42
2022-10-18T23:39:36.623Z,79.16
2022-10-18T23:42:03.292Z,79.09
2022-10-18T23:44:30.031Z,79.23
2022-10-18T23:46:56.762Z,78.95
2022-10-18T23:49:23.442Z,79.42
2022-10-18T23:51:50.109Z,79.33
2022-10-18T23:54:16.907Z,79.38
2022-10-18T23:56:43.559Z,79.28
2022-10-18T23:59:10.197Z,79.17
